Time;durP1;ratioP1;P1;durP2;ratioP2;P2;SDS_P1;SDS_P2;PMS_P1;PMS_P2;Temp;Humidity;BMP_temperature;BMP_pressure;BME280_temperature;BME280_humidity;BME280_pressure;Samples;Min_cycle;Max_cycle;Signal;HPM_P1;HPM_P2
2021/04/07 00:01:00;;;;;;;12.00;2.03;;;;;;;;;;4988467;28;20118;-80
2021/04/07 00:03:28;;;;;;;6.88;1.15;;;;;;;;;;4991668;28;20037;-80
2021/04/07 00:05:55;;;;;;;10.45;1.60;;;;;;;;;;4995142;28;20015;-80
2021/04/07 00:08:25;;;;;;;10.63;1.33;;;;;;;;;;4995919;28;20054;-80
2021/04/07 00:10:58;;;;;;;16.65;1.38;;;;;;;;;;4995075;28;20029;-80
2021/04/07 00:13:24;;;;;;;19.00;1.63;;;;;;;;;;4993513;28;20030;-80
2021/04/07 00:15:50;;;;;;;17.17;1.65;;;;;;;;;;4993525;28;20072;-80
2021/04/07 00:18:19;;;;;;;14.60;1.83;;;;;;;;;;4993600;28;20444;-80
2021/04/07 00:20:45;;;;;;;12.75;2.50;;;;;;;;;;4995104;28;20034;-80
2021/04/07 00:23:11;;;;;;;16.15;1.60;;;;;;;;;;4995398;28;20030;-80
2021/04/07 00:25:37;;;;;;;13.35;2.80;;;;;;;;;;4990147;28;20057;-80
2021/04/07 00:28:06;;;;;;;14.95;2.50;;;;;;;;;;4990278;28;20037;-79
2021/04/07 00:30:36;;;;;;;12.35;3.03;;;;;;;;;;4989851;28;20452;-78
2021/04/07 00:33:02;;;;;;;14.50;2.53;;;;;;;;;;4989745;28;20081;-79
2021/04/07 00:35:28;;;;;;;14.88;2.33;;;;;;;;;;4987637;28;20014;-79
2021/04/07 00:37:54;;;;;;;9.60;2.10;;;;;;;;;;4988173;28;20369;-78
2021/04/07 00:40:20;;;;;;;13.45;2.17;;;;;;;;;;4990758;28;20026;-79
2021/04/07 00:42:48;;;;;;;18.17;2.67;;;;;;;;;;5008883;28;20090;-79
2021/04/07 00:45:14;;;;;;;16.55;2.38;;;;;;;;;;5006347;28;20033;-78
2021/04/07 00:47:40;;;;;;;11.18;1.67;;;;;;;;;;4987029;28;20327;-79
2021/04/07 00:50:07;;;;;;;11.23;1.17;;;;;;;;;;4989156;28;20468;-79
2021/04/07 00:52:33;;;;;;;10.48;2.15;;;;;;;;;;4986958;28;20026;-79
2021/04/07 00:55:00;;;;;;;9.40;1.80;;;;;;;;;;4986697;28;20080;-79
2021/04/07 00:57:26;;;;;;;9.52;2.10;;;;;;;;;;4986614;28;20034;-78
2021/04/07 00:59:52;;;;;;;13.23;3.67;;;;;;;;;;4984455;28;20038;-79
2021/04/07 01:02:19;;;;;;;8.45;1.30;;;;;;;;;;4986627;28;20487;-79
2021/04/07 01:04:46;;;;;;;13.57;3.28;;;;;;;;;;4987982;28;20467;-79
2021/04/07 01:07:12;;;;;;;5.78;1.33;;;;;;;;;;4988889;28;20097;-79
2021/04/07 01:09:38;;;;;;;8.80;1.92;;;;;;;;;;4981836;28;20019;-79
2021/04/07 01:12:05;;;;;;;7.13;1.30;;;;;;;;;;4980792;28;20030;-79
2021/04/07 01:14:31;;;;;;;7.05;1.05;;;;;;;;;;4989005;28;20442;-79
2021/04/07 01:16:57;;;;;;;4.43;0.80;;;;;;;;;;4988694;28;20121;-79
2021/04/07 01:19:25;;;;;;;5.35;0.82;;;;;;;;;;4988063;28;20125;-79
2021/04/07 01:21:51;;;;;;;14.75;1.48;;;;;;;;;;4987363;28;20022;-79
2021/04/07 01:24:18;;;;;;;9.57;1.25;;;;;;;;;;4987829;28;20105;-79
2021/04/07 01:26:44;;;;;;;6.22;1.13;;;;;;;;;;4987474;28;20026;-78
2021/04/07 01:29:10;;;;;;;10.85;1.30;;;;;;;;;;4986525;28;20033;-79
2021/04/07 01:31:49;;;;;;;11.18;1.45;;;;;;;;;;4990322;28;20026;-79
2021/04/07 01:34:22;;;;;;;13.10;1.58;;;;;;;;;;4988958;28;20056;-79
2021/04/07 01:36:48;;;;;;;13.57;2.17;;;;;;;;;;4992824;28;20077;-79
2021/04/07 01:39:14;;;;;;;10.05;1.85;;;;;;;;;;4992136;28;20022;-79
2021/04/07 01:41:41;;;;;;;12.70;2.35;;;;;;;;;;4992327;28;20030;-79
2021/04/07 01:44:07;;;;;;;17.73;2.38;;;;;;;;;;4991279;28;20505;-79
2021/04/07 01:46:34;;;;;;;11.45;2.50;;;;;;;;;;4990894;28;20472;-79
2021/04/07 01:49:01;;;;;;;13.02;2.70;;;;;;;;;;4990449;28;20143;-79
2021/04/07 01:51:27;;;;;;;20.98;1.77;;;;;;;;;;4989852;28;20034;-79
2021/04/07 02:56:03;;;;;;;21.30;2.70;;;;;;;;;;4990158;28;20076;-79
2021/04/07 02:58:28;;;;;;;15.48;1.95;;;;;;;;;;4990493;28;20380;-79
2021/04/07 03:00:54;;;;;;;9.25;1.42;;;;;;;;;;4997175;28;20033;-79
2021/04/07 03:03:20;;;;;;;7.47;1.30;;;;;;;;;;4990940;28;20030;-79
2021/04/07 03:05:46;;;;;;;7.57;2.22;;;;;;;;;;4989501;28;20026;-79
2021/04/07 03:08:13;;;;;;;9.82;1.33;;;;;;;;;;4991029;28;20027;-79
2021/04/07 03:10:39;;;;;;;10.38;1.52;;;;;;;;;;4990112;28;20038;-79
2021/04/07 03:13:05;;;;;;;17.75;2.53;;;;;;;;;;4990924;28;20567;-79
2021/04/07 03:15:31;;;;;;;9.32;2.15;;;;;;;;;;4990326;28;20022;-79
2021/04/07 03:17:57;;;;;;;13.82;2.13;;;;;;;;;;4990139;28;20045;-79
2021/04/07 03:20:23;;;;;;;11.07;1.35;;;;;;;;;;4990482;28;20446;-79
2021/04/07 03:22:49;;;;;;;13.50;2.42;;;;;;;;;;4990577;28;20033;-79
2021/04/07 03:25:15;;;;;;;11.80;1.83;;;;;;;;;;4991644;28;20061;-79
2021/04/07 03:27:41;;;;;;;14.77;2.00;;;;;;;;;;4989570;28;20026;-79
2021/04/07 03:30:07;;;;;;;12.52;2.03;;;;;;;;;;4990014;28;20261;-79
2021/04/07 03:32:33;;;;;;;11.45;1.83;;;;;;;;;;4990496;28;20644;-80
2021/04/07 03:34:59;;;;;;;12.00;1.95;;;;;;;;;;4990575;28;20046;-79
2021/04/07 03:37:25;;;;;;;12.07;1.85;;;;;;;;;;4992074;28;20026;-79
2021/04/07 03:39:52;;;;;;;12.18;1.65;;;;;;;;;;4989703;28;20316;-80
2021/04/07 03:42:18;;;;;;;16.77;1.40;;;;;;;;;;4999260;28;20038;-80
2021/04/07 03:44:44;;;;;;;10.88;1.15;;;;;;;;;;5003220;28;20069;-79
2021/04/07 03:47:10;;;;;;;7.93;1.40;;;;;;;;;;4992536;28;20022;-80
2021/04/07 03:49:36;;;;;;;9.27;1.40;;;;;;;;;;4992585;28;20498;-80
2021/04/07 03:52:02;;;;;;;12.45;1.73;;;;;;;;;;4973440;28;20113;-80
2021/04/07 03:54:28;;;;;;;7.55;1.75;;;;;;;;;;4984693;28;20088;-80
2021/04/07 03:56:55;;;;;;;8.85;1.60;;;;;;;;;;4988386;28;20027;-79
2021/04/07 03:59:21;;;;;;;14.82;2.33;;;;;;;;;;4992460;28;20125;-80
2021/04/07 04:01:47;;;;;;;15.32;2.08;;;;;;;;;;4992917;28;20105;-80
2021/04/07 04:04:13;;;;;;;9.27;1.70;;;;;;;;;;4983099;28;20482;-79
2021/04/07 04:06:44;;;;;;;12.70;1.88;;;;;;;;;;4990749;28;20482;-79
2021/04/07 04:09:10;;;;;;;;;;;;;;;;;;4994060;28;20066;-79
2021/04/07 04:11:36;;;;;;;12.20;1.60;;;;;;;;;;4992649;28;19964;-80
2021/04/07 04:14:04;;;;;;;13.43;3.25;;;;;;;;;;4994032;28;20033;-80
2021/04/07 04:19:07;;;;;;;14.95;3.00;;;;;;;;;;4977881;28;19950;-81
2021/04/07 04:21:39;;;;;;;10.13;3.20;;;;;;;;;;4955926;28;20105;-79
2021/04/07 04:24:05;;;;;;;12.77;2.63;;;;;;;;;;4939374;29;20493;-79
2021/04/07 04:26:39;;;;;;;16.75;2.97;;;;;;;;;;4930356;28;20634;-79
2021/04/07 04:29:05;;;;;;;9.70;2.83;;;;;;;;;;4940344;28;20114;-80
2021/04/07 04:31:32;;;;;;;13.05;2.88;;;;;;;;;;4931974;29;20176;-80
2021/04/07 04:33:58;;;;;;;28.83;4.70;;;;;;;;;;4960967;28;20085;-80
2021/04/07 04:36:24;;;;;;;18.00;3.10;;;;;;;;;;4939437;29;20118;-80
2021/04/07 04:38:50;;;;;;;19.48;2.88;;;;;;;;;;4937636;29;20054;-80
2021/04/07 04:41:30;;;;;;;26.70;3.65;;;;;;;;;;4922028;29;20040;-79
2021/04/07 04:43:56;;;;;;;16.23;3.25;;;;;;;;;;4927560;29;20029;-80
2021/04/07 04:46:24;;;;;;;29.15;5.18;;;;;;;;;;4958367;28;20093;-80
2021/04/07 04:48:50;;;;;;;32.58;3.78;;;;;;;;;;4953320;29;20025;-80
2021/04/07 04:51:16;;;;;;;28.77;3.97;;;;;;;;;;4943054;28;20062;-78
2021/04/07 04:53:42;;;;;;;34.97;5.22;;;;;;;;;;4946910;28;20059;-78
2021/04/07 04:56:08;;;;;;;30.40;4.13;;;;;;;;;;4939410;28;20031;-78
2021/04/07 04:58:34;;;;;;;35.40;5.55;;;;;;;;;;4959885;28;20256;-78
2021/04/07 05:00:59;;;;;;;27.88;5.38;;;;;;;;;;4956192;28;20501;-77
2021/04/07 05:03:26;;;;;;;26.35;4.18;;;;;;;;;;4955201;28;20044;-78
2021/04/07 05:05:52;;;;;;;34.58;6.82;;;;;;;;;;4930655;29;20102;-78
2021/04/07 05:08:18;;;;;;;39.92;6.80;;;;;;;;;;4949734;28;20560;-78
2021/04/07 05:10:45;;;;;;;42.47;7.68;;;;;;;;;;4936155;28;20324;-77
2021/04/07 05:13:10;;;;;;;39.80;5.78;;;;;;;;;;4953738;28;20023;-78
2021/04/07 05:15:37;;;;;;;35.67;5.35;;;;;;;;;;4948480;28;20050;-77
2021/04/07 05:18:09;;;;;;;33.88;5.72;;;;;;;;;;4945641;28;20122;-78
2021/04/07 05:20:35;;;;;;;42.45;6.55;;;;;;;;;;4959188;28;20525;-77
2021/04/07 05:23:01;;;;;;;49.67;8.45;;;;;;;;;;4940614;28;20110;-77
2021/04/07 05:25:27;;;;;;;47.85;7.78;;;;;;;;;;4935827;28;20058;-77
2021/04/07 05:27:53;;;;;;;44.00;6.82;;;;;;;;;;4960517;28;20062;-77
2021/04/07 05:30:19;;;;;;;43.80;7.50;;;;;;;;;;4936104;29;20023;-77
2021/04/07 05:32:45;;;;;;;61.88;8.23;;;;;;;;;;4934476;28;20440;-77
2021/04/07 05:35:12;;;;;;;61.30;8.50;;;;;;;;;;4958261;28;20070;-77
2021/04/07 05:37:38;;;;;;;34.22;6.63;;;;;;;;;;4941952;28;20481;-77
2021/04/07 05:40:04;;;;;;;36.63;6.57;;;;;;;;;;4951537;28;20040;-77
2021/04/07 05:42:30;;;;;;;36.97;7.20;;;;;;;;;;4931135;29;20082;-77
2021/04/07 05:44:56;;;;;;;45.78;7.72;;;;;;;;;;4964825;28;20031;-77
2021/04/07 05:47:22;;;;;;;52.97;8.27;;;;;;;;;;4943382;28;20054;-77
2021/04/07 05:49:48;;;;;;;43.35;8.57;;;;;;;;;;4951583;28;20063;-77
2021/04/07 05:52:14;;;;;;;52.38;8.93;;;;;;;;;;4949589;28;20070;-77
2021/04/07 05:54:40;;;;;;;51.38;8.52;;;;;;;;;;4921909;29;20578;-77
2021/04/07 05:57:06;;;;;;;55.92;8.80;;;;;;;;;;4933098;28;20500;-78
2021/04/07 05:59:32;;;;;;;47.15;8.55;;;;;;;;;;4946792;28;20480;-77
2021/04/07 06:01:58;;;;;;;52.70;8.43;;;;;;;;;;4936896;28;20489;-77
2021/04/07 06:04:24;;;;;;;52.42;9.32;;;;;;;;;;4943769;29;20086;-77
2021/04/07 06:06:50;;;;;;;34.25;6.63;;;;;;;;;;4944205;28;20504;-78
2021/04/07 06:09:16;;;;;;;35.80;6.18;;;;;;;;;;4918820;28;20036;-75
2021/04/07 06:11:41;;;;;;;48.58;7.45;;;;;;;;;;4926107;29;20035;-73
2021/04/07 06:14:07;;;;;;;52.58;8.75;;;;;;;;;;4947230;28;20031;-78
2021/04/07 06:16:33;;;;;;;39.30;7.68;;;;;;;;;;4934280;28;22378;-77
2021/04/07 06:19:00;;;;;;;46.35;7.40;;;;;;;;;;4956302;28;20035;-77
2021/04/07 06:21:26;;;;;;;43.10;6.90;;;;;;;;;;4938329;28;20484;-76
2021/04/07 06:23:52;;;;;;;40.55;8.90;;;;;;;;;;4933137;29;20030;-77
2021/04/07 06:26:18;;;;;;;35.03;6.55;;;;;;;;;;4944708;28;20019;-76
2021/04/07 06:28:43;;;;;;;41.30;7.80;;;;;;;;;;4928137;29;20027;-76
2021/04/07 06:31:09;;;;;;;45.45;7.32;;;;;;;;;;4952731;28;20536;-77
2021/04/07 06:33:37;;;;;;;35.35;7.68;;;;;;;;;;4935083;29;20038;-73
2021/04/07 06:36:07;;;;;;;41.83;7.07;;;;;;;;;;4931981;29;20027;-76
2021/04/07 06:38:34;;;;;;;39.70;7.30;;;;;;;;;;4933274;28;20053;-76
2021/04/07 06:41:01;;;;;;;43.22;10.07;;;;;;;;;;4925490;28;20077;-75
2021/04/07 06:43:28;;;;;;;55.88;9.27;;;;;;;;;;4940765;28;20027;-76
2021/04/07 06:45:54;;;;;;;46.28;8.35;;;;;;;;;;4943918;28;20023;-75
2021/04/07 06:48:21;;;;;;;40.22;6.78;;;;;;;;;;4927378;29;20533;-76
2021/04/07 06:50:48;;;;;;;40.13;7.70;;;;;;;;;;4947507;28;20035;-75
2021/04/07 06:53:16;;;;;;;38.03;7.47;;;;;;;;;;4944721;28;20079;-76
2021/04/07 06:55:41;;;;;;;43.45;7.07;;;;;;;;;;4943200;28;20408;-75
2021/04/07 06:58:08;;;;;;;41.03;6.47;;;;;;;;;;4949128;28;20023;-75
2021/04/07 07:00:35;;;;;;;34.83;5.28;;;;;;;;;;4947572;28;20020;-76
2021/04/07 07:03:06;;;;;;;37.22;6.35;;;;;;;;;;4945110;28;20038;-76
2021/04/07 07:05:33;;;;;;;35.17;5.60;;;;;;;;;;4940034;28;20433;-76
2021/04/07 07:08:06;;;;;;;32.08;5.45;;;;;;;;;;4948659;28;20074;-76
2021/04/07 07:10:45;;;;;;;35.80;6.00;;;;;;;;;;4940144;28;20028;-76
2021/04/07 07:13:15;;;;;;;32.30;5.93;;;;;;;;;;4964277;28;20019;-75
2021/04/07 07:15:41;;;;;;;38.78;8.07;;;;;;;;;;4927829;29;20039;-75
2021/04/07 07:18:07;;;;;;;45.50;7.32;;;;;;;;;;4946612;28;20039;-75
2021/04/07 07:20:34;;;;;;;36.15;5.80;;;;;;;;;;4940810;28;20032;-75
2021/04/07 07:23:01;;;;;;;30.63;5.88;;;;;;;;;;4947766;28;20449;-75
2021/04/07 07:25:27;;;;;;;31.75;5.38;;;;;;;;;;4940152;28;20098;-75
2021/04/07 07:27:58;;;;;;;33.28;7.63;;;;;;;;;;4946425;28;20163;-75
2021/04/07 07:30:24;;;;;;;28.90;5.30;;;;;;;;;;4943231;28;20388;-75
2021/04/07 07:32:50;;;;;;;21.48;4.20;;;;;;;;;;4938685;29;20118;-74
2021/04/07 07:35:17;;;;;;;33.50;5.78;;;;;;;;;;4930008;28;20123;-75
2021/04/07 07:37:44;;;;;;;29.05;5.25;;;;;;;;;;4924815;29;20503;-75
2021/04/07 07:40:19;;;;;;;25.02;5.47;;;;;;;;;;4935116;28;20062;-76
2021/04/07 07:42:48;;;;;;;31.48;6.82;;;;;;;;;;4938006;28;20543;-76
2021/04/07 07:45:15;;;;;;;31.45;4.68;;;;;;;;;;4945337;28;20027;-74
2021/04/07 07:47:45;;;;;;;28.70;6.15;;;;;;;;;;4946014;28;20027;-77
2021/04/07 07:50:12;;;;;;;30.50;5.15;;;;;;;;;;4961227;28;20027;-76
2021/04/07 07:52:38;;;;;;;28.42;4.70;;;;;;;;;;4933137;29;20064;-76
2021/04/07 07:55:14;;;;;;;31.83;5.72;;;;;;;;;;4937135;28;20036;-74
2021/04/07 07:57:51;;;;;;;31.25;5.18;;;;;;;;;;4944726;28;20053;-77
2021/04/07 08:00:17;;;;;;;27.20;4.60;;;;;;;;;;4937930;28;20027;-75
2021/04/07 08:02:43;;;;;;;39.38;5.93;;;;;;;;;;4962590;28;20467;-76
2021/04/07 08:05:16;;;;;;;44.25;6.63;;;;;;;;;;4958678;28;20018;-77
2021/04/07 08:07:43;;;;;;;30.77;6.47;;;;;;;;;;4929756;29;20024;-76
2021/04/07 08:10:10;;;;;;;33.08;6.07;;;;;;;;;;4955594;28;20043;-76
2021/04/07 08:12:37;;;;;;;32.63;5.97;;;;;;;;;;4947012;28;20047;-76
2021/04/07 08:15:03;;;;;;;32.65;5.82;;;;;;;;;;4943467;28;20026;-76
2021/04/07 08:17:30;;;;;;;40.33;6.05;;;;;;;;;;4938610;28;20397;-76
2021/04/07 08:19:57;;;;;;;31.05;5.68;;;;;;;;;;4944449;28;20026;-76
2021/04/07 08:22:24;;;;;;;31.08;4.72;;;;;;;;;;4948326;28;20031;-76
2021/04/07 08:24:50;;;;;;;38.95;6.03;;;;;;;;;;4934425;29;20434;-76
2021/04/07 08:27:18;;;;;;;39.83;6.55;;;;;;;;;;4953770;28;20077;-76
2021/04/07 08:29:44;;;;;;;42.95;6.57;;;;;;;;;;4923322;29;20030;-77
2021/04/07 08:32:10;;;;;;;30.55;5.25;;;;;;;;;;4956291;28;20043;-76
2021/04/07 08:34:36;;;;;;;33.85;5.55;;;;;;;;;;4928819;29;20031;-77
2021/04/07 08:37:02;;;;;;;24.77;4.25;;;;;;;;;;4950180;28;20121;-77
2021/04/07 08:39:28;;;;;;;20.40;3.80;;;;;;;;;;4949611;28;20019;-77
2021/04/07 08:41:54;;;;;;;34.58;5.55;;;;;;;;;;4946465;28;20127;-76
2021/04/07 08:44:20;;;;;;;25.98;5.40;;;;;;;;;;4961758;28;20102;-77
2021/04/07 08:46:52;;;;;;;26.92;4.53;;;;;;;;;;4953429;28;20110;-76
2021/04/07 08:49:37;;;;;;;27.00;5.18;;;;;;;;;;4950603;28;20016;-76
2021/04/07 08:52:16;;;;;;;26.77;3.97;;;;;;;;;;4953378;28;20397;-76
2021/04/07 08:54:49;;;;;;;29.98;4.82;;;;;;;;;;4953013;28;20121;-76
2021/04/07 08:57:32;;;;;;;31.67;3.97;;;;;;;;;;4942519;28;20031;-76
2021/04/07 08:59:59;;;;;;;31.52;4.53;;;;;;;;;;4937151;28;20444;-76
2021/04/07 09:02:25;;;;;;;21.77;4.00;;;;;;;;;;4943632;28;20077;-75
2021/04/07 09:05:05;;;;;;;27.85;6.00;;;;;;;;;;4959599;28;20042;-75
2021/04/07 09:07:41;;;;;;;30.25;4.78;;;;;;;;;;4936191;28;20033;-75
2021/04/07 09:10:08;;;;;;;26.88;5.28;;;;;;;;;;4960163;28;20019;-75
2021/04/07 09:12:34;;;;;;;22.52;4.43;;;;;;;;;;4961477;28;20070;-75
2021/04/07 09:15:10;;;;;;;23.00;4.43;;;;;;;;;;4959472;28;20023;-75
2021/04/07 09:17:42;;;;;;;31.75;4.18;;;;;;;;;;4932619;28;20069;-76
2021/04/07 09:20:09;;;;;;;29.83;4.82;;;;;;;;;;4945232;28;20049;-76
2021/04/07 09:22:45;;;;;;;30.15;4.68;;;;;;;;;;4956715;28;20035;-76
2021/04/07 09:25:12;;;;;;;21.65;4.20;;;;;;;;;;4957989;28;20078;-76
2021/04/07 09:27:38;;;;;;;24.75;4.43;;;;;;;;;;4955593;28;20027;-76
2021/04/07 09:30:05;;;;;;;23.27;3.95;;;;;;;;;;4935024;28;20528;-76
2021/04/07 09:32:34;;;;;;;19.63;3.85;;;;;;;;;;4963811;28;20374;-76
2021/04/07 09:35:02;;;;;;;26.50;4.68;;;;;;;;;;4955787;28;20420;-76
2021/04/07 09:37:35;;;;;;;26.65;5.75;;;;;;;;;;4954472;28;20026;-76
2021/04/07 09:40:01;;;;;;;25.15;3.53;;;;;;;;;;4954928;28;20454;-76
2021/04/07 09:42:27;;;;;;;14.60;2.78;;;;;;;;;;4954938;28;20027;-76
2021/04/07 09:44:53;;;;;;;15.98;3.40;;;;;;;;;;4959126;28;20493;-76
2021/04/07 09:47:28;;;;;;;24.50;3.92;;;;;;;;;;4955884;28;20031;-71
2021/04/07 09:49:54;;;;;;;24.55;3.72;;;;;;;;;;4950322;28;20086;-76
2021/04/07 09:52:20;;;;;;;31.05;4.00;;;;;;;;;;4957608;28;20535;-76
2021/04/07 09:54:46;;;;;;;20.30;4.20;;;;;;;;;;4945364;28;20114;-76
2021/04/07 09:57:12;;;;;;;16.02;2.72;;;;;;;;;;4960186;28;20031;-76
2021/04/07 09:59:44;;;;;;;18.98;3.50;;;;;;;;;;4960594;28;20027;-76
2021/04/07 10:02:33;;;;;;;21.58;3.72;;;;;;;;;;4940991;28;20036;-76
2021/04/07 10:04:59;;;;;;;14.90;3.00;;;;;;;;;;4932842;28;20461;-76
2021/04/07 10:07:26;;;;;;;20.60;3.58;;;;;;;;;;4961458;28;20063;-76
2021/04/07 10:09:55;;;;;;;25.00;3.75;;;;;;;;;;4951986;28;20027;-76
2021/04/07 10:12:22;;;;;;;16.58;2.92;;;;;;;;;;4958515;28;20267;-75
2021/04/07 10:14:48;;;;;;;13.23;2.83;;;;;;;;;;4959559;28;20786;-76
2021/04/07 10:17:15;;;;;;;19.85;3.25;;;;;;;;;;4952581;28;20023;-76
2021/04/07 10:19:42;;;;;;;21.42;4.07;;;;;;;;;;4943605;28;20033;-75
2021/04/07 10:22:14;;;;;;;16.42;4.05;;;;;;;;;;4924546;28;20490;-75
2021/04/07 10:24:40;;;;;;;18.77;4.15;;;;;;;;;;4941554;28;20046;-76
2021/04/07 10:27:06;;;;;;;22.45;3.83;;;;;;;;;;4934421;28;20040;-75
2021/04/07 10:29:33;;;;;;;14.85;2.78;;;;;;;;;;4950149;28;20494;-75
2021/04/07 10:32:00;;;;;;;18.60;3.45;;;;;;;;;;4940333;28;20034;-76
2021/04/07 10:34:29;;;;;;;11.43;2.58;;;;;;;;;;4935138;28;20027;-74
2021/04/07 10:36:55;;;;;;;14.57;2.30;;;;;;;;;;4933882;28;20410;-76
2021/04/07 10:39:21;;;;;;;10.10;2.25;;;;;;;;;;4947399;28;20046;-76
2021/04/07 10:41:53;;;;;;;12.98;2.33;;;;;;;;;;4939069;28;20046;-76
2021/04/07 10:44:37;;;;;;;9.55;2.25;;;;;;;;;;4929729;28;20413;-76
2021/04/07 10:47:13;;;;;;;9.50;1.58;;;;;;;;;;4942500;28;20174;-76
2021/04/07 10:49:39;;;;;;;13.63;2.00;;;;;;;;;;4941365;28;20114;-75
2021/04/07 10:52:07;;;;;;;14.43;3.75;;;;;;;;;;4935446;28;20035;-76
2021/04/07 10:54:33;;;;;;;14.48;2.35;;;;;;;;;;4920213;29;20082;-76
2021/04/07 10:57:07;;;;;;;14.13;2.45;;;;;;;;;;4938108;28;20027;-76
2021/04/07 10:59:34;;;;;;;20.75;3.88;;;;;;;;;;4939424;28;20039;-76
2021/04/07 11:02:12;;;;;;;14.38;2.97;;;;;;;;;;4955619;28;20050;-76
2021/04/07 11:04:38;;;;;;;16.77;3.58;;;;;;;;;;4956718;28;20438;-76
2021/04/07 11:07:04;;;;;;;14.98;2.85;;;;;;;;;;4946474;28;20473;-78
2021/04/07 11:09:36;;;;;;;19.52;4.13;;;;;;;;;;4955943;28;20162;-78
2021/04/07 11:12:05;;;;;;;20.58;2.92;;;;;;;;;;4983301;28;20022;-78
2021/04/07 11:14:32;;;;;;;12.82;2.95;;;;;;;;;;4972857;28;20054;-78
2021/04/07 11:17:03;;;;;;;15.75;2.88;;;;;;;;;;4970990;28;20034;-78
2021/04/07 11:19:35;;;;;;;15.23;2.58;;;;;;;;;;4961610;28;20030;-79
2021/04/07 11:22:02;;;;;;;12.52;2.22;;;;;;;;;;4971355;28;20081;-76
2021/04/07 11:24:28;;;;;;;18.15;3.15;;;;;;;;;;4961968;28;20033;-76
2021/04/07 11:26:54;;;;;;;15.02;2.55;;;;;;;;;;4962693;28;20031;-76
2021/04/07 11:29:20;;;;;;;20.83;3.08;;;;;;;;;;4964690;28;20050;-79
2021/04/07 11:31:50;;;;;;;22.17;3.80;;;;;;;;;;4965557;28;20074;-79
2021/04/07 11:34:18;;;;;;;16.70;3.15;;;;;;;;;;4965776;28;20031;-79
2021/04/07 11:39:16;;;;;;;17.65;3.60;;;;;;;;;;4966396;28;20093;-79
2021/04/07 11:46:36;;;;;;;24.75;3.30;;;;;;;;;;4972816;28;20057;-78
2021/04/07 11:49:05;;;;;;;18.63;3.22;;;;;;;;;;4966146;28;20024;-78
2021/04/07 11:51:39;;;;;;;18.23;2.73;;;;;;;;;;4967912;28;20033;-79
2021/04/07 11:54:09;;;;;;;13.40;2.05;;;;;;;;;;4950307;28;20050;-78
2021/04/07 11:56:36;;;;;;;13.40;2.42;;;;;;;;;;4964340;28;20027;-78
2021/04/07 11:59:02;;;;;;;17.73;4.05;;;;;;;;;;4966871;28;20027;-79
2021/04/07 12:01:28;;;;;;;11.50;1.67;;;;;;;;;;4948549;28;20034;-79
2021/04/07 12:03:54;;;;;;;8.73;1.67;;;;;;;;;;4968716;28;20029;-78
2021/04/07 12:06:20;;;;;;;8.02;1.17;;;;;;;;;;4956295;28;20034;-78
2021/04/07 12:08:47;;;;;;;9.50;2.28;;;;;;;;;;4964641;28;20038;-78
2021/04/07 12:11:13;;;;;;;10.35;2.13;;;;;;;;;;4971677;28;20034;-78
2021/04/07 12:13:39;;;;;;;15.27;4.15;;;;;;;;;;4965257;28;20045;-78
2021/04/07 12:16:05;;;;;;;11.95;2.58;;;;;;;;;;4973571;28;20027;-79
2021/04/07 12:18:32;;;;;;;11.27;2.00;;;;;;;;;;4970773;28;20034;-77
2021/04/07 12:20:57;;;;;;;13.10;2.15;;;;;;;;;;4951136;28;20054;-78
2021/04/07 12:23:24;;;;;;;13.80;2.22;;;;;;;;;;4963096;28;20027;-79
2021/04/07 12:25:50;;;;;;;15.55;1.80;;;;;;;;;;4950400;28;20027;-78
2021/04/07 12:28:16;;;;;;;21.52;2.60;;;;;;;;;;4969715;28;20065;-78
2021/04/07 12:30:48;;;;;;;21.80;4.32;;;;;;;;;;4972754;28;20023;-78
2021/04/07 12:33:18;;;;;;;14.98;2.45;;;;;;;;;;4974102;28;20026;-78
2021/04/07 12:35:44;;;;;;;12.82;2.60;;;;;;;;;;4954343;28;20094;-78
2021/04/07 12:38:11;;;;;;;16.80;2.70;;;;;;;;;;4970779;28;20027;-78
2021/04/07 12:40:38;;;;;;;15.07;3.10;;;;;;;;;;4950413;28;20062;-78
2021/04/07 12:43:07;;;;;;;15.57;2.40;;;;;;;;;;4969705;28;20477;-79
2021/04/07 12:45:33;;;;;;;14.10;2.20;;;;;;;;;;4959653;28;20037;-78
2021/04/07 12:47:59;;;;;;;14.07;2.65;;;;;;;;;;4968542;28;20484;-78
2021/04/07 12:50:25;;;;;;;20.40;3.60;;;;;;;;;;4969937;28;20053;-79
2021/04/07 12:52:51;;;;;;;10.57;1.83;;;;;;;;;;4981442;28;20030;-75
2021/04/07 12:55:17;;;;;;;9.60;2.08;;;;;;;;;;4962471;28;20026;-75
2021/04/07 12:57:43;;;;;;;10.77;2.75;;;;;;;;;;4980690;28;20093;-75
2021/04/07 13:00:09;;;;;;;10.60;2.50;;;;;;;;;;4974449;28;20118;-75
2021/04/07 13:02:35;;;;;;;14.55;1.90;;;;;;;;;;4965504;28;20126;-76
2021/04/07 13:05:01;;;;;;;9.60;1.98;;;;;;;;;;4954938;28;20118;-77
2021/04/07 13:07:27;;;;;;;14.13;2.78;;;;;;;;;;4974792;28;20126;-74
2021/04/07 13:09:53;;;;;;;11.93;2.22;;;;;;;;;;4978721;28;20029;-77
2021/04/07 13:12:19;;;;;;;11.38;2.60;;;;;;;;;;4956897;28;20030;-77
2021/04/07 13:14:45;;;;;;;15.15;3.38;;;;;;;;;;4960404;28;20034;-77
2021/04/07 13:17:15;;;;;;;18.23;3.40;;;;;;;;;;4955764;28;20789;-77
2021/04/07 13:19:46;;;;;;;;;;;;;;;;;;4976539;28;20030;-77
2021/04/07 13:22:12;;;;;;;13.38;2.58;;;;;;;;;;4972436;28;19925;-77
2021/04/07 13:24:38;;;;;;;14.00;2.97;;;;;;;;;;4962104;28;20026;-77
2021/04/07 13:27:04;;;;;;;10.50;2.25;;;;;;;;;;4980289;28;20038;-77
2021/04/07 13:29:30;;;;;;;12.20;2.40;;;;;;;;;;4960969;28;20039;-77
2021/04/07 13:31:56;;;;;;;14.93;2.05;;;;;;;;;;4950168;28;20023;-77
2021/04/07 13:34:28;;;;;;;20.63;3.10;;;;;;;;;;4973369;28;20369;-77
2021/04/07 13:37:11;;;;;;;12.98;1.67;;;;;;;;;;4961141;28;20035;-77
2021/04/07 13:39:40;;;;;;;9.80;1.73;;;;;;;;;;4976443;28;20018;-77
2021/04/07 13:44:43;;;;;;;11.32;1.63;;;;;;;;;;4962529;28;20275;-78
2021/04/07 13:47:09;;;;;;;8.00;1.52;;;;;;;;;;4984629;28;20113;-75
2021/04/07 13:49:35;;;;;;;16.02;2.13;;;;;;;;;;4977920;28;20027;-76
2021/04/07 13:52:01;;;;;;;14.35;2.25;;;;;;;;;;4964064;28;20173;-75
2021/04/07 13:54:28;;;;;;;15.25;2.97;;;;;;;;;;4954896;28;20300;-75
2021/04/07 13:59:23;;;;;;;10.38;1.73;;;;;;;;;;4972197;28;20031;-75
2021/04/07 14:01:49;;;;;;;10.13;1.98;;;;;;;;;;4970007;28;20054;-75
2021/04/07 14:04:15;;;;;;;11.25;2.47;;;;;;;;;;4972232;28;20104;-75
2021/04/07 14:06:41;;;;;;;16.15;2.00;;;;;;;;;;4961603;28;20507;-74
2021/04/07 14:09:07;;;;;;;11.05;2.65;;;;;;;;;;4961524;28;20019;-74
2021/04/07 14:11:33;;;;;;;13.55;2.75;;;;;;;;;;4959369;28;20053;-74
2021/04/07 14:13:59;;;;;;;9.38;1.92;;;;;;;;;;4961425;28;20030;-74
2021/04/07 14:16:25;;;;;;;11.15;1.75;;;;;;;;;;4960818;28;20037;-74
2021/04/07 14:18:51;;;;;;;12.98;2.15;;;;;;;;;;4967126;28;20038;-74
2021/04/07 14:21:17;;;;;;;12.95;2.35;;;;;;;;;;4962557;28;20038;-73
2021/04/07 14:23:43;;;;;;;18.48;2.90;;;;;;;;;;4962117;28;20034;-74
2021/04/07 14:26:11;;;;;;;9.38;1.52;;;;;;;;;;4959205;28;20038;-73
2021/04/07 14:28:37;;;;;;;16.23;2.25;;;;;;;;;;4963491;28;20384;-73
2021/04/07 14:31:03;;;;;;;10.00;2.25;;;;;;;;;;4961420;28;20039;-75
2021/04/07 14:33:29;;;;;;;15.23;2.08;;;;;;;;;;4960868;28;20035;-74
2021/04/07 14:35:55;;;;;;;23.75;3.78;;;;;;;;;;4966187;28;20680;-75
2021/04/07 14:38:22;;;;;;;15.25;2.95;;;;;;;;;;4965159;28;20484;-75
2021/04/07 14:40:49;;;;;;;13.05;1.70;;;;;;;;;;4965495;28;20122;-75
2021/04/07 14:43:15;;;;;;;16.02;2.60;;;;;;;;;;4947943;28;20614;-75
2021/04/07 14:45:44;;;;;;;19.30;2.00;;;;;;;;;;4969744;28;20030;-75
2021/04/07 14:48:10;;;;;;;12.23;1.48;;;;;;;;;;4967412;28;20054;-75
2021/04/07 14:50:47;;;;;;;11.82;2.67;;;;;;;;;;4955782;28;20039;-75
2021/04/07 14:53:22;;;;;;;8.70;1.73;;;;;;;;;;4964097;28;20034;-75
2021/04/07 14:55:52;;;;;;;7.88;2.20;;;;;;;;;;4949843;28;20027;-75
2021/04/07 14:58:18;;;;;;;9.10;2.17;;;;;;;;;;4961138;28;20122;-75
2021/04/07 15:00:45;;;;;;;14.90;2.17;;;;;;;;;;4967521;28;20024;-75
2021/04/07 15:03:11;;;;;;;14.40;3.25;;;;;;;;;;4972921;28;20086;-75
2021/04/07 15:05:37;;;;;;;20.20;3.13;;;;;;;;;;4961302;28;20083;-75
2021/04/07 15:08:03;;;;;;;15.63;2.45;;;;;;;;;;4969091;28;20103;-75
2021/04/07 15:10:29;;;;;;;12.90;3.10;;;;;;;;;;4966246;28;20026;-75
2021/04/07 15:12:55;;;;;;;13.07;2.42;;;;;;;;;;4969567;28;20058;-75
2021/04/07 15:15:21;;;;;;;8.60;1.48;;;;;;;;;;4968043;28;20493;-75
2021/04/07 15:17:47;;;;;;;8.40;2.05;;;;;;;;;;4969486;28;20038;-75
2021/04/07 15:20:15;;;;;;;10.38;1.80;;;;;;;;;;4969272;28;20066;-75
2021/04/07 15:22:41;;;;;;;8.82;1.40;;;;;;;;;;4968584;28;20056;-75
2021/04/07 15:25:33;;;;;;;6.85;1.10;;;;;;;;;;4966895;28;20051;-75
2021/04/07 15:30:25;;;;;;;8.63;1.35;;;;;;;;;;4956116;28;20572;-74
2021/04/07 15:32:52;;;;;;;6.90;1.02;;;;;;;;;;4953198;28;20019;-74
2021/04/07 15:35:18;;;;;;;8.75;1.00;;;;;;;;;;4953055;28;20052;-74
2021/04/07 15:37:44;;;;;;;4.80;0.98;;;;;;;;;;4950304;28;20090;-73
2021/04/07 15:40:11;;;;;;;5.88;1.20;;;;;;;;;;4952239;28;20093;-74
2021/04/07 15:42:37;;;;;;;8.98;2.15;;;;;;;;;;4970600;28;20044;-74
2021/04/07 15:45:07;;;;;;;10.50;1.50;;;;;;;;;;4959498;28;20592;-74
2021/04/07 15:47:34;;;;;;;11.02;1.58;;;;;;;;;;4958007;28;20569;-74
2021/04/07 15:50:01;;;;;;;3.95;0.85;;;;;;;;;;4953679;28;20019;-74
2021/04/07 15:52:28;;;;;;;4.55;0.77;;;;;;;;;;4951394;28;20055;-75
2021/04/07 15:54:54;;;;;;;4.60;0.93;;;;;;;;;;4949501;28;20035;-74